Terminal Aerodrome Forecast
Issued by NWS

Home | Current Version | Previous Version | Text Only | Print | Product List | Glossary On
Versions: 1 2 3 4 5 6 7 8 9 10 11 12 13 14
000
FTUS44 KMAF 261100
TAFCNM
TAF
KCNM 261129Z 2612/2712 13008KT P6SM SCT250
     FM261800 25018G25KT P6SM BKN150
     FM270000 28011KT P6SM BKN120
     FM270600 03011KT P6SM BKN050=

USA.gov is the U.S. government's official web portal to all federal, state and local government web resources and services.